Time;durP1;ratioP1;P1;durP2;ratioP2;P2;SDS_P1;SDS_P2;PMS_P1;PMS_P2;Temp;Humidity;BMP_temperature;BMP_pressure;BME280_temperature;BME280_humidity;BME280_pressure;Samples;Min_cycle;Max_cycle;Signal;HPM_P1;HPM_P2
2023/06/17 00:01:09;;;;;;;9.43;6.22;;;;;;;16.03;61.55;101572.59;6211773;23;20005;-79
2023/06/17 00:03:44;;;;;;;10.35;6.03;;;;;;;15.97;61.88;101573.91;6212257;23;20015;-79
2023/06/17 00:06:10;;;;;;;11.75;5.97;;;;;;;15.90;62.39;101578.06;6212184;23;20008;-80
2023/06/17 00:08:36;;;;;;;16.55;6.72;;;;;;;15.88;62.21;101571.22;6186046;23;20000;-79
2023/06/17 00:11:31;;;;;;;11.93;6.07;;;;;;;15.80;63.00;101565.72;6210687;23;20430;-80
2023/06/17 00:14:05;;;;;;;14.38;6.10;;;;;;;15.78;62.66;101571.16;6209814;23;20470;-79
2023/06/17 00:16:43;;;;;;;10.60;6.15;;;;;;;15.66;63.41;101554.47;6212393;23;20001;-80
2023/06/17 00:19:22;;;;;;;21.05;6.72;;;;;;;15.71;63.48;101562.03;6212592;23;20396;-79
2023/06/17 00:21:56;;;;;;;14.18;6.78;;;;;;;15.59;63.99;101557.72;6209965;23;20342;-80
2023/06/17 00:24:22;;;;;;;13.23;6.30;;;;;;;15.49;63.78;101551.50;6184757;23;20013;-79
2023/06/17 00:27:10;;;;;;;11.95;6.22;;;;;;;15.47;64.21;101558.72;6186734;23;20011;-79
2023/06/17 00:29:52;;;;;;;12.75;6.30;;;;;;;15.46;64.08;101549.09;6180201;23;20009;-80
2023/06/17 00:33:00;;;;;;;12.82;6.53;;;;;;;15.47;63.73;101543.66;6154755;23;20426;-79
2023/06/17 00:35:48;;;;;;;12.13;6.28;;;;;;;15.31;64.95;101546.75;6172429;23;20009;-80
2023/06/17 00:38:29;;;;;;;11.90;5.85;;;;;;;15.34;64.79;101550.97;6177576;23;20005;-79
2023/06/17 00:40:54;;;;;;;9.27;5.75;;;;;;;15.29;65.40;101550.50;6154062;23;20017;-79
2023/06/17 00:43:22;;;;;;;13.63;6.30;;;;;;;15.25;65.83;101557.88;6153789;23;20477;-79
2023/06/17 00:46:01;;;;;;;10.30;5.90;;;;;;;15.11;66.41;101552.00;6180177;23;20016;-79
2023/06/17 00:48:27;;;;;;;7.82;5.50;;;;;;;15.08;66.78;101555.75;6178778;23;20426;-79
2023/06/17 00:51:10;;;;;;;8.98;5.70;;;;;;;15.09;65.97;101553.94;6154764;23;20084;-79
2023/06/17 00:53:52;;;;;;;25.42;5.75;;;;;;;14.99;67.21;101554.69;6162247;23;20016;-79
2023/06/17 00:56:31;;;;;;;6.32;5.10;;;;;;;14.92;67.25;101553.50;6184249;23;20000;-79
2023/06/17 00:59:20;;;;;;;7.00;5.55;;;;;;;14.90;66.81;101547.50;6185913;23;20016;-79
2023/06/17 01:01:58;;;;;;;8.93;5.68;;;;;;;14.83;68.05;101548.97;6210621;23;20031;-79
2023/06/17 01:04:24;;;;;;;9.93;5.32;;;;;;;14.74;67.92;101553.16;6180345;23;20055;-79
2023/06/17 01:07:40;;;;;;;11.15;5.28;;;;;;;14.80;67.26;101548.34;6209055;23;20413;-79
2023/06/17 01:10:12;;;;;;;13.40;5.33;;;;;;;14.76;68.13;101546.91;6208731;23;20059;-79
2023/06/17 01:13:16;;;;;;;11.20;5.45;;;;;;;14.83;66.26;101548.97;6212408;23;20054;-79
2023/06/17 01:15:45;;;;;;;9.30;5.90;;;;;;;14.65;68.50;101545.97;6090521;23;20032;-79
2023/06/17 01:18:25;;;;;;;13.77;6.25;;;;;;;14.64;68.38;101543.44;6065650;23;20007;-79
2023/06/17 01:20:53;;;;;;;11.10;6.18;;;;;;;14.56;68.46;101546.69;6057476;23;20028;-79
2023/06/17 01:23:21;;;;;;;10.00;5.95;;;;;;;14.51;69.05;101540.94;6088273;23;20021;-79
2023/06/17 01:25:47;;;;;;;10.20;6.20;;;;;;;14.54;69.03;101545.13;6152259;23;20012;-79
2023/06/17 01:28:37;;;;;;;10.02;6.50;;;;;;;14.51;68.05;101543.56;6149799;23;20009;-80
2023/06/17 01:31:26;;;;;;;10.20;6.40;;;;;;;14.43;69.09;101540.69;6151223;23;20081;-79
2023/06/17 01:33:56;;;;;;;12.85;6.63;;;;;;;14.38;69.18;101541.00;6175471;23;20444;-80
2023/06/17 01:36:27;;;;;;;15.55;6.40;;;;;;;14.42;69.09;101541.63;6152440;23;20001;-80
2023/06/17 01:39:01;;;;;;;9.15;6.55;;;;;;;14.32;69.31;101541.50;6150337;23;20035;-80
2023/06/17 01:41:46;;;;;;;10.55;6.60;;;;;;;14.29;69.76;101541.72;6152520;23;20018;-80
2023/06/17 01:44:12;;;;;;;8.05;6.30;;;;;;;14.26;69.65;101547.28;6150013;23;20064;-79
2023/06/17 01:46:48;;;;;;;9.02;6.80;;;;;;;14.25;69.92;101542.09;6151940;23;20010;-79
2023/06/17 01:49:13;;;;;;;7.55;6.50;;;;;;;14.18;69.97;101541.75;6151862;23;20006;-79
2023/06/17 01:51:39;;;;;;;8.75;7.00;;;;;;;14.15;70.13;101544.63;6149804;23;20060;-79
2023/06/17 01:54:12;;;;;;;9.02;6.75;;;;;;;14.14;69.71;101544.75;6150317;23;20320;-79
2023/06/17 01:56:47;;;;;;;9.98;7.38;;;;;;;14.09;70.12;101542.47;6175810;23;20001;-79
2023/06/17 01:59:12;;;;;;;10.48;7.05;;;;;;;14.04;70.32;101539.34;6150189;23;20012;-79
2023/06/17 02:02:14;;;;;;;13.13;7.35;;;;;;;14.12;68.94;101531.63;6150437;23;20010;-79
2023/06/17 02:04:47;;;;;;;9.05;6.82;;;;;;;14.03;70.37;101527.06;6150859;23;20060;-79
2023/06/17 02:07:24;;;;;;;13.05;7.13;;;;;;;13.97;70.79;101538.09;6150808;23;20453;-79
2023/06/17 02:09:59;;;;;;;14.02;7.28;;;;;;;13.92;71.15;101540.25;6151665;23;20005;-78
2023/06/17 02:12:24;;;;;;;11.85;7.28;;;;;;;13.89;71.47;101529.91;6149197;23;20060;-78
2023/06/17 02:14:53;;;;;;;15.10;7.03;;;;;;;13.87;71.32;101531.84;6150230;23;20009;-79
2023/06/17 02:17:19;;;;;;;7.95;7.15;;;;;;;13.78;72.03;101526.28;6151334;23;20371;-79
2023/06/17 02:19:45;;;;;;;10.45;7.22;;;;;;;13.71;71.94;101522.44;6148642;23;20029;-79
2023/06/17 02:22:26;;;;;;;8.85;7.05;;;;;;;13.67;72.45;101518.34;6149028;23;20010;-79
2023/06/17 02:25:02;;;;;;;10.02;7.20;;;;;;;13.68;72.22;101521.84;6146545;23;20005;-79
2023/06/17 02:27:52;;;;;;;12.75;7.05;;;;;;;13.60;72.58;101516.25;6149268;23;20416;-80
2023/06/17 02:31:09;;;;;;;11.48;7.53;;;;;;;13.70;71.27;101519.91;6131399;23;20079;-79
2023/06/17 02:33:36;;;;;;;11.30;7.18;;;;;;;13.52;73.03;101514.19;6124308;23;20012;-80
2023/06/17 02:36:04;;;;;;;10.88;7.57;;;;;;;13.53;73.73;101521.19;6152141;23;20019;-80
2023/06/17 02:38:30;;;;;;;12.23;7.85;;;;;;;13.53;73.54;101510.59;6151784;23;20009;-80
2023/06/17 02:40:55;;;;;;;11.40;7.32;;;;;;;13.46;73.91;101510.22;6151203;23;20036;-81
2023/06/17 02:43:20;;;;;;;12.07;7.85;;;;;;;13.44;73.79;101520.06;6151515;23;20013;-80
2023/06/17 02:45:46;;;;;;;13.18;7.40;;;;;;;13.42;74.26;101515.88;6151827;23;20060;-81
2023/06/17 02:48:34;;;;;;;14.25;7.82;;;;;;;13.45;73.58;101515.63;6149697;23;20005;-81
2023/06/17 02:50:59;;;;;;;10.82;6.82;;;;;;;13.39;74.45;101511.66;6150949;23;20002;-80
2023/06/17 02:53:31;;;;;;;9.85;7.50;;;;;;;13.34;74.83;101516.44;6151181;23;20303;-80
2023/06/17 02:56:02;;;;;;;11.35;7.10;;;;;;;13.30;75.24;101509.69;6151302;23;20052;-80
2023/06/17 02:58:34;;;;;;;13.55;7.28;;;;;;;13.31;75.46;101514.03;6151415;23;20390;-80
2023/06/17 03:01:00;;;;;;;12.80;7.50;;;;;;;13.24;75.69;101510.16;6151357;23;20309;-80
2023/06/17 03:03:35;;;;;;;12.40;7.32;;;;;;;13.21;75.75;101510.41;6149664;23;20117;-80
2023/06/17 03:06:33;;;;;;;10.98;7.00;;;;;;;13.18;76.04;101507.94;6151217;23;20165;-80
2023/06/17 03:09:00;;;;;;;12.10;7.45;;;;;;;13.15;76.38;101501.06;6150657;23;20009;-80
2023/06/17 03:11:28;;;;;;;10.50;7.53;;;;;;;13.17;76.61;101506.25;6151182;23;20297;-80
2023/06/17 03:13:54;;;;;;;14.70;7.93;;;;;;;13.14;76.28;101504.66;6151468;23;20066;-81
2023/06/17 03:16:19;;;;;;;12.40;7.70;;;;;;;13.12;76.55;101498.66;6149882;23;20005;-80
2023/06/17 03:18:45;;;;;;;18.23;8.02;;;;;;;13.11;76.57;101502.25;6150931;23;20442;-81
2023/06/17 03:21:10;;;;;;;14.57;8.60;;;;;;;13.06;76.56;101499.13;6149123;23;20049;-81
2023/06/17 03:23:37;;;;;;;10.15;7.88;;;;;;;13.06;76.45;101498.28;6150919;23;20009;-78
2023/06/17 03:26:07;;;;;;;13.10;7.80;;;;;;;13.03;76.85;101499.34;6149181;23;20016;-78
2023/06/17 03:28:32;;;;;;;9.35;8.13;;;;;;;13.01;76.79;101498.63;6147935;23;20084;-80
2023/06/17 03:31:02;;;;;;;10.60;8.45;;;;;;;13.03;77.05;101499.34;6150464;23;20025;-78
2023/06/17 03:33:30;;;;;;;9.90;8.40;;;;;;;12.96;76.83;101498.13;6151304;23;20491;-78
2023/06/17 03:36:02;;;;;;;14.38;8.75;;;;;;;13.01;76.57;101500.41;6151793;23;20371;-80
2023/06/17 03:38:27;;;;;;;12.85;8.95;;;;;;;13.02;76.67;101497.66;6150631;23;20261;-80
2023/06/17 03:40:52;;;;;;;10.48;7.95;;;;;;;13.04;76.95;101495.75;6150458;23;20457;-78
2023/06/17 03:43:18;;;;;;;9.82;8.52;;;;;;;13.01;77.48;101498.63;6150726;23;20015;-77
2023/06/17 03:45:43;;;;;;;13.18;7.78;;;;;;;13.02;77.29;101491.53;6150702;23;20063;-78
2023/06/17 03:48:15;;;;;;;15.13;8.77;;;;;;;12.96;78.16;101500.75;6151847;23;20005;-81
2023/06/17 03:50:40;;;;;;;13.67;8.30;;;;;;;12.95;77.81;101491.13;6150015;23;20008;-78
2023/06/17 03:53:08;;;;;;;11.50;8.32;;;;;;;12.95;78.79;101491.13;6151114;23;19997;-78
2023/06/17 03:56:00;;;;;;;11.93;8.10;;;;;;;13.00;78.12;101493.44;6152115;23;20001;-78
2023/06/17 03:58:29;;;;;;;16.00;8.52;;;;;;;12.95;78.79;101485.00;6150892;23;20009;-80
2023/06/17 04:00:56;;;;;;;19.02;8.65;;;;;;;13.06;78.52;101485.91;6149087;23;20109;-80
2023/06/17 04:03:25;;;;;;;11.30;8.73;;;;;;;13.43;77.31;101480.53;6150725;23;20052;-81
2023/06/17 04:05:55;;;;;;;15.10;8.63;;;;;;;14.64;73.58;101490.47;6150325;23;20060;-78
2023/06/17 04:08:32;;;;;;;12.93;8.43;;;;;;;15.60;69.27;101478.03;6151491;23;20391;-78
2023/06/17 04:10:58;;;;;;;10.07;8.40;;;;;;;16.58;65.01;101477.47;6150944;23;20005;-81
2023/06/17 04:13:24;;;;;;;17.05;8.70;;;;;;;17.45;61.61;101472.19;6150459;23;20008;-81
2023/06/17 04:15:50;;;;;;;10.20;8.15;;;;;;;18.15;58.80;101477.06;6151045;23;20394;-78
2023/06/17 04:18:15;;;;;;;17.40;8.23;;;;;;;18.60;57.29;101470.91;6150237;23;20001;-78
2023/06/17 04:20:44;;;;;;;15.68;8.27;;;;;;;18.65;57.33;101483.81;6197731;23;20508;-80
2023/06/17 04:23:18;;;;;;;9.15;7.22;;;;;;;18.06;58.42;101487.75;6211661;23;20001;-78
2023/06/17 04:25:43;;;;;;;14.43;8.25;;;;;;;17.80;58.93;101484.88;6183631;23;20345;-80
2023/06/17 04:28:08;;;;;;;11.45;8.73;;;;;;;17.31;60.47;101488.59;6210224;23;20008;-78
2023/06/17 04:30:34;;;;;;;10.85;8.75;;;;;;;16.82;61.72;101491.25;6211500;23;20004;-81
2023/06/17 04:33:00;;;;;;;11.90;8.27;;;;;;;16.46;63.52;101483.88;6210955;23;20004;-78
2023/06/17 04:35:29;;;;;;;13.75;8.73;;;;;;;16.17;64.54;101487.25;6209872;23;20403;-81
2023/06/17 04:37:55;;;;;;;10.40;8.73;;;;;;;15.92;66.03;101493.00;6210323;23;20007;-81
2023/06/17 04:40:24;;;;;;;11.10;8.70;;;;;;;15.56;67.36;101492.47;6210461;23;20783;-78
2023/06/17 04:42:50;;;;;;;13.43;9.60;;;;;;;15.41;67.79;101491.13;6210940;23;20009;-81
2023/06/17 04:45:17;;;;;;;14.32;9.13;;;;;;;15.17;69.07;101498.47;6160826;23;20083;-78
2023/06/17 04:47:43;;;;;;;11.27;9.02;;;;;;;15.15;69.88;101497.75;6211867;23;20004;-78
2023/06/17 04:50:08;;;;;;;13.88;9.07;;;;;;;14.99;70.82;101498.19;6211865;23;20328;-81
2023/06/17 04:52:34;;;;;;;10.98;9.43;;;;;;;14.82;71.79;101498.75;6210524;23;20003;-78
2023/06/17 04:55:00;;;;;;;16.92;9.95;;;;;;;14.68;72.80;101497.19;6209103;23;20012;-82
2023/06/17 04:57:26;;;;;;;16.63;10.00;;;;;;;14.56;74.04;101508.78;6212835;23;20035;-77
2023/06/17 04:59:51;;;;;;;15.52;10.38;;;;;;;14.51;74.67;101509.16;6212951;23;20087;-78
2023/06/17 05:02:16;;;;;;;16.42;10.35;;;;;;;14.49;74.91;101507.59;6185572;23;20059;-80
2023/06/17 05:04:42;;;;;;;14.65;10.90;;;;;;;14.42;74.82;101504.56;6212972;23;20005;-80
2023/06/17 05:07:10;;;;;;;15.98;11.27;;;;;;;14.33;76.18;101508.75;6213065;23;20079;-77
2023/06/17 05:09:35;;;;;;;15.20;11.23;;;;;;;14.42;74.19;101507.22;6185039;23;20004;-79
2023/06/17 05:12:00;;;;;;;13.23;11.30;;;;;;;14.45;75.92;101516.75;6212583;23;20814;-80
2023/06/17 05:14:26;;;;;;;14.20;11.52;;;;;;;14.39;76.47;101516.22;6211656;23;20427;-79
2023/06/17 05:16:51;;;;;;;17.98;12.77;;;;;;;14.46;76.76;101519.28;6184463;23;20087;-78
2023/06/17 05:19:17;;;;;;;13.27;12.05;;;;;;;14.51;77.28;101524.19;6212162;23;20012;-77
2023/06/17 05:21:55;;;;;;;15.73;12.10;;;;;;;14.50;77.73;101525.16;6185631;23;20012;-77
2023/06/17 05:24:20;;;;;;;14.13;11.52;;;;;;;14.57;77.26;101518.41;6184071;23;20008;-77
2023/06/17 05:26:46;;;;;;;14.70;12.73;;;;;;;14.64;78.36;101522.25;6211593;23;20426;-80
2023/06/17 05:29:22;;;;;;;14.95;12.77;;;;;;;14.73;79.40;101525.00;6212314;23;20437;-77
2023/06/17 05:31:47;;;;;;;14.52;12.65;;;;;;;14.90;78.94;101518.34;6211826;23;20004;-79
2023/06/17 05:34:13;;;;;;;18.45;14.05;;;;;;;14.95;79.42;101516.16;6212165;23;20001;-78
2023/06/17 05:36:39;;;;;;;19.15;14.13;;;;;;;15.04;80.21;101509.25;6210578;23;20007;-78
2023/06/17 05:39:10;;;;;;;17.35;14.50;;;;;;;15.14;80.35;101514.63;6212863;23;20334;-78
2023/06/17 05:41:35;;;;;;;16.52;14.80;;;;;;;15.24;80.24;101507.63;6213104;23;20032;-77
2023/06/17 05:44:01;;;;;;;19.80;15.77;;;;;;;15.39;78.84;101509.00;6210736;23;20877;-77
2023/06/17 05:46:31;;;;;;;20.55;16.63;;;;;;;15.57;77.60;101511.91;6210821;23;20014;-78
2023/06/17 05:48:57;;;;;;;17.73;15.65;;;;;;;15.64;77.81;101508.66;6212412;23;20008;-77
2023/06/17 05:51:22;;;;;;;16.67;15.02;;;;;;;15.68;77.96;101513.69;6184883;23;20381;-77
2023/06/17 05:53:50;;;;;;;19.75;15.48;;;;;;;15.76;78.18;101505.91;6212109;23;20087;-77
2023/06/17 05:56:19;;;;;;;18.48;16.48;;;;;;;15.79;79.09;101506.50;6212647;23;20295;-77
2023/06/17 05:58:46;;;;;;;18.45;16.58;;;;;;;15.84;77.64;101512.25;6211079;23;20062;-79
2023/06/17 06:01:11;;;;;;;18.67;16.42;;;;;;;15.98;77.47;101509.25;6185062;23;20063;-80
2023/06/17 06:03:36;;;;;;;19.13;16.80;;;;;;;16.16;75.65;101506.81;6185909;23;20008;-77
2023/06/17 06:06:02;;;;;;;18.40;16.17;;;;;;;16.29;75.32;101506.59;6210340;23;20005;-78
2023/06/17 06:08:27;;;;;;;18.00;15.65;;;;;;;16.46;74.30;101499.81;6211740;23;20012;-77
2023/06/17 06:10:55;;;;;;;18.70;16.90;;;;;;;16.58;74.65;101514.66;6211356;23;20036;-80
2023/06/17 06:13:25;;;;;;;17.58;15.48;;;;;;;16.73;73.51;101512.47;6211223;23;20430;-81
2023/06/17 06:15:57;;;;;;;17.20;15.57;;;;;;;16.82;72.76;101507.19;6184483;23;20031;-82
2023/06/17 06:18:23;;;;;;;18.67;15.75;;;;;;;16.93;72.11;101508.88;6212182;23;20004;-81
2023/06/17 06:20:51;;;;;;;15.70;14.23;;;;;;;17.10;71.20;101510.00;6208208;23;20024;-78
2023/06/17 06:23:18;;;;;;;16.20;14.63;;;;;;;17.22;70.50;101503.59;6210874;23;20342;-79
2023/06/17 06:25:58;;;;;;;19.70;16.13;;;;;;;17.31;69.86;101504.56;6184277;23;20008;-76
2023/06/17 06:28:23;;;;;;;16.35;14.88;;;;;;;17.39;69.56;101499.38;6211031;23;20426;-80
2023/06/17 06:30:52;;;;;;;16.98;15.27;;;;;;;17.50;68.51;101497.38;6211233;23;20008;-80
2023/06/17 06:33:17;;;;;;;14.23;13.02;;;;;;;17.59;66.46;101494.84;6210633;23;20377;-78
2023/06/17 06:35:43;;;;;;;14.57;13.07;;;;;;;17.64;66.70;101501.44;6184904;23;20004;-79
2023/06/17 06:38:12;;;;;;;14.30;12.90;;;;;;;17.80;65.48;101503.53;6211498;23;20012;-77
2023/06/17 06:40:37;;;;;;;14.00;12.43;;;;;;;17.92;63.35;101499.69;6209897;23;20007;-77
2023/06/17 06:43:17;;;;;;;19.23;13.02;;;;;;;18.01;64.09;101501.50;6209837;23;20013;-80
2023/06/17 06:45:56;;;;;;;14.40;12.75;;;;;;;18.09;63.21;101501.63;6183733;23;20040;-80
2023/06/17 06:48:25;;;;;;;15.52;12.20;;;;;;;18.20;64.47;101511.25;6183675;23;20274;-80
2023/06/17 06:50:51;;;;;;;15.80;13.05;;;;;;;18.28;63.79;101502.50;6211077;23;20054;-80
2023/06/17 06:53:25;;;;;;;15.95;12.27;;;;;;;18.37;64.13;101513.13;6211376;23;20004;-80
2023/06/17 06:55:50;;;;;;;13.77;12.38;;;;;;;18.48;61.40;101504.94;6181075;23;20014;-80
2023/06/17 06:58:23;;;;;;;14.02;12.55;;;;;;;18.62;58.39;101506.28;6211521;23;20334;-80
2023/06/17 07:00:55;;;;;;;14.32;12.80;;;;;;;18.75;59.96;101506.75;6181726;23;20009;-80
2023/06/17 07:03:23;;;;;;;16.88;12.45;;;;;;;18.90;56.76;101508.94;6211081;23;20424;-80
2023/06/17 07:05:57;;;;;;;17.40;11.98;;;;;;;19.03;57.75;101501.38;6211741;23;20015;-80
2023/06/17 07:08:27;;;;;;;13.60;12.20;;;;;;;19.36;56.88;101508.69;6182777;23;20004;-80
2023/06/17 07:11:16;;;;;;;27.92;13.93;;;;;;;19.68;56.95;101492.09;6210897;23;20007;-81
2023/06/17 07:13:41;;;;;;;15.23;12.50;;;;;;;19.98;54.19;101500.59;6155748;23;20452;-81
2023/06/17 07:16:10;;;;;;;15.35;12.85;;;;;;;20.35;53.95;101501.13;6211101;23;20004;-81
2023/06/17 07:18:35;;;;;;;14.05;12.65;;;;;;;20.67;52.41;101496.09;6184613;23;20004;-82
2023/06/17 07:21:01;;;;;;;14.57;13.13;;;;;;;20.91;52.50;101498.81;6184604;23;20560;-81
2023/06/17 07:23:26;;;;;;;15.77;14.18;;;;;;;21.17;50.79;101499.50;6183745;23;20004;-80
2023/06/17 07:25:51;;;;;;;17.42;14.65;;;;;;;21.38;48.24;101495.53;6211102;23;20533;-80
2023/06/17 07:28:23;;;;;;;16.23;12.63;;;;;;;21.90;49.24;101496.78;6211492;23;20648;-81
2023/06/17 07:30:49;;;;;;;14.30;12.30;;;;;;;22.08;45.64;101487.75;6183765;23;20005;-81
2023/06/17 07:33:15;;;;;;;13.93;10.98;;;;;;;22.23;44.82;101491.38;6184734;23;20001;-80
2023/06/17 07:36:12;;;;;;;11.20;10.20;;;;;;;22.78;48.32;101495.75;6210736;23;20039;-80
2023/06/17 07:38:37;;;;;;;12.48;11.20;;;;;;;23.05;43.44;101497.13;6211668;23;20032;-81
2023/06/17 07:41:03;;;;;;;12.85;11.65;;;;;;;23.33;42.54;101494.75;6211522;23;20024;-81
2023/06/17 07:43:30;;;;;;;10.98;9.85;;;;;;;23.58;40.46;101492.69;6183741;23;20082;-78
2023/06/17 07:45:55;;;;;;;12.13;9.35;;;;;;;23.88;39.59;101490.88;6184123;23;20337;-79
2023/06/17 07:48:20;;;;;;;14.90;10.13;;;;;;;24.14;40.01;101483.19;6210640;23;20083;-78
2023/06/17 07:50:47;;;;;;;15.88;10.07;;;;;;;24.29;40.44;101485.88;6183497;23;20029;-79
2023/06/17 07:53:13;;;;;;;11.35;10.10;;;;;;;24.82;39.01;101481.94;6184322;23;19997;-79
2023/06/17 07:55:39;;;;;;;13.63;11.75;;;;;;;24.84;38.15;101481.75;6210499;23;20005;-79
2023/06/17 07:58:05;;;;;;;12.82;11.30;;;;;;;24.79;38.59;101476.91;6210490;23;20008;-77
2023/06/17 08:00:31;;;;;;;12.80;10.95;;;;;;;24.93;37.56;101476.06;6211194;23;20008;-77
2023/06/17 08:03:21;;;;;;;11.48;9.85;;;;;;;25.36;38.39;101473.34;6210277;23;20004;-78
2023/06/17 08:05:46;;;;;;;19.30;11.32;;;;;;;25.17;36.51;101474.00;6182609;23;20092;-78
2023/06/17 08:08:24;;;;;;;12.52;9.20;;;;;;;25.34;38.83;101470.03;6211258;23;20123;-78
2023/06/17 08:10:49;;;;;;;14.38;9.77;;;;;;;25.67;36.69;101480.25;6210300;23;20148;-78
2023/06/17 08:13:14;;;;;;;12.52;10.75;;;;;;;25.78;35.05;101474.31;6183364;23;20378;-78
2023/06/17 08:15:41;;;;;;;12.05;9.85;;;;;;;26.00;35.64;101475.03;6211259;23;20488;-78
2023/06/17 08:18:10;;;;;;;10.95;9.77;;;;;;;26.01;34.81;101474.84;6211344;23;20000;-81
2023/06/17 08:20:36;;;;;;;10.75;9.15;;;;;;;26.29;35.68;101473.94;6174180;23;20025;-81
2023/06/17 08:23:08;;;;;;;11.77;8.75;;;;;;;26.59;34.83;101469.94;6182001;23;20009;-81
2023/06/17 08:25:43;;;;;;;10.13;9.10;;;;;;;26.65;33.70;101473.69;6179699;23;20044;-81
2023/06/17 08:28:11;;;;;;;10.57;8.57;;;;;;;26.47;34.00;101458.06;6182672;23;20005;-82
2023/06/17 08:30:36;;;;;;;11.35;8.10;;;;;;;26.61;32.38;101465.16;6183259;23;20056;-81
2023/06/17 08:33:03;;;;;;;8.57;7.68;;;;;;;26.93;31.99;101465.44;6181699;23;20335;-82
2023/06/17 08:35:49;;;;;;;7.80;7.10;;;;;;;27.31;33.65;101461.13;6181429;23;20059;-81
2023/06/17 08:38:15;;;;;;;7.68;6.20;;;;;;;27.72;29.36;101451.94;6182896;23;20028;-81
2023/06/17 08:40:47;;;;;;;9.88;5.10;;;;;;;27.82;29.30;101449.63;6181710;23;20063;-81
2023/06/17 08:43:25;;;;;;;4.88;4.38;;;;;;;28.31;29.04;101456.34;6182987;23;20040;-80
2023/06/17 08:45:53;;;;;;;6.82;4.63;;;;;;;28.15;27.85;101459.50;6182595;23;20426;-81
2023/06/17 08:48:19;;;;;;;6.38;4.70;;;;;;;28.43;25.84;101453.81;6181891;23;20304;-79
2023/06/17 08:50:47;;;;;;;9.32;4.40;;;;;;;28.56;27.53;101461.84;6182957;23;20331;-81
2023/06/17 08:53:14;;;;;;;7.28;4.70;;;;;;;28.59;25.70;101456.81;6182525;23;19997;-81
2023/06/17 08:55:39;;;;;;;6.45;4.00;;;;;;;28.45;26.80;101449.00;6179685;23;20080;-80
2023/06/17 08:58:06;;;;;;;8.10;5.15;;;;;;;28.62;26.90;101455.56;6182596;23;20466;-81
2023/06/17 09:00:31;;;;;;;8.20;4.70;;;;;;;28.90;27.63;101455.19;6180860;23;20001;-82
2023/06/17 09:02:59;;;;;;;6.43;4.40;;;;;;;29.15;27.37;101453.31;6180147;23;20104;-80
2023/06/17 09:05:26;;;;;;;6.85;3.80;;;;;;;29.09;26.90;101446.06;6181981;23;20001;-81
2023/06/17 09:07:52;;;;;;;9.07;4.25;;;;;;;29.03;26.97;101449.66;6181237;23;20336;-81
2023/06/17 09:10:21;;;;;;;8.57;4.35;;;;;;;28.82;26.84;101452.69;6182021;23;20084;-82
2023/06/17 09:12:46;;;;;;;5.25;4.00;;;;;;;28.85;27.14;101449.63;6181632;23;20001;-81
2023/06/17 09:15:16;;;;;;;7.72;4.10;;;;;;;28.82;27.50;101450.00;6181693;23;20142;-82
2023/06/17 09:17:44;;;;;;;5.50;3.88;;;;;;;28.88;27.64;101444.59;6180032;23;20012;-79
2023/06/17 09:20:12;;;;;;;6.97;3.78;;;;;;;28.93;27.44;101446.63;6166634;23;20022;-81
2023/06/17 09:22:49;;;;;;;5.85;3.40;;;;;;;29.14;27.51;101451.66;6151562;23;20013;-79
2023/06/17 09:25:25;;;;;;;5.70;3.72;;;;;;;29.36;27.05;101445.84;6152142;23;20017;-81
2023/06/17 09:27:54;;;;;;;4.65;3.53;;;;;;;29.17;27.44;101447.66;6151258;23;20400;-80
2023/06/17 09:30:23;;;;;;;7.10;3.20;;;;;;;29.39;28.23;101448.13;6150057;23;20061;-81
2023/06/17 09:32:51;;;;;;;7.05;3.45;;;;;;;29.59;27.26;101451.47;6150575;23;20455;-79
2023/06/17 09:35:20;;;;;;;5.22;3.50;;;;;;;29.68;27.04;101454.75;6152480;23;20398;-80
2023/06/17 09:37:52;;;;;;;8.95;4.00;;;;;;;29.47;26.64;101456.00;6151136;23;20009;-81
2023/06/17 09:40:18;;;;;;;5.13;3.83;;;;;;;29.31;26.64;101455.50;6152371;23;20175;-80
2023/06/17 09:42:44;;;;;;;6.93;3.90;;;;;;;29.30;27.35;101450.28;6151129;23;20013;-79
2023/06/17 09:45:12;;;;;;;7.30;4.72;;;;;;;29.23;27.22;101453.06;6150530;23;20002;-80
2023/06/17 09:47:39;;;;;;;6.57;4.10;;;;;;;29.43;27.04;101446.63;6152267;23;20006;-79
2023/06/17 09:50:11;;;;;;;7.65;3.67;;;;;;;29.76;28.08;101447.13;6151878;23;20025;-81
2023/06/17 09:52:37;;;;;;;;;;;;;;;30.34;28.81;101448.53;6153086;23;20025;-80
2023/06/17 09:55:02;;;;;;;10.10;3.80;;;;;;;29.95;26.48;101435.22;6150731;23;19943;-80
2023/06/17 09:57:31;;;;;;;6.60;3.70;;;;;;;30.10;27.97;101437.59;6149755;23;20017;-81
2023/06/17 10:00:00;;;;;;;4.78;3.63;;;;;;;30.04;27.21;101441.22;6152278;23;20343;-80
2023/06/17 10:02:26;;;;;;;6.32;3.65;;;;;;;30.27;27.45;101443.22;6152184;23;20060;-80
2023/06/17 10:04:55;;;;;;;6.72;3.70;;;;;;;30.08;26.07;101444.31;6151721;23;20010;-81
2023/06/17 10:07:24;;;;;;;5.28;3.60;;;;;;;29.87;26.08;101440.13;6152383;23;20006;-81
2023/06/17 10:09:51;;;;;;;9.45;4.30;;;;;;;29.64;27.08;101438.09;6151587;23;20005;-80
2023/06/17 10:12:18;;;;;;;5.63;3.60;;;;;;;29.41;27.39;101427.03;6150085;23;20012;-80
2023/06/17 10:14:47;;;;;;;5.35;3.40;;;;;;;29.58;27.61;101428.13;6152545;23;20005;-80
2023/06/17 10:17:13;;;;;;;6.45;3.78;;;;;;;29.57;26.80;101426.47;6152029;23;20009;-80
2023/06/17 10:19:48;;;;;;;8.52;4.28;;;;;;;29.99;27.76;101423.91;6163657;23;20051;-79
2023/06/17 10:22:16;;;;;;;9.23;3.78;;;;;;;29.74;26.83;101422.13;6185371;23;20486;-79
2023/06/17 10:24:47;;;;;;;9.70;3.60;;;;;;;29.78;28.18;101426.03;6211403;23;20000;-80
2023/06/17 10:27:21;;;;;;;10.52;6.45;;;;;;;29.74;26.70;101422.13;6210960;23;20050;-79
2023/06/17 10:29:51;;;;;;;7.30;3.90;;;;;;;29.07;27.15;101417.53;6211731;23;20041;-80
2023/06/17 10:32:24;;;;;;;7.63;4.13;;;;;;;29.25;27.34;101421.13;6211310;23;20007;-81
2023/06/17 10:35:19;;;;;;;4.53;3.28;;;;;;;29.86;27.36;101414.03;6186499;23;20027;-81
2023/06/17 10:37:50;;;;;;;7.85;3.75;;;;;;;29.78;26.61;101417.06;6159955;23;20004;-80
2023/06/17 10:40:35;;;;;;;5.55;3.55;;;;;;;30.26;28.20;101419.81;6210107;23;20004;-80
2023/06/17 10:43:09;;;;;;;4.85;3.40;;;;;;;30.29;26.44;101418.53;6209452;23;20011;-81
2023/06/17 10:45:51;;;;;;;5.88;3.50;;;;;;;30.38;27.22;101417.97;6211703;23;20011;-80
2023/06/17 10:48:31;;;;;;;5.23;3.43;;;;;;;30.51;26.78;101411.56;6185394;23;20320;-80
2023/06/17 10:51:00;;;;;;;4.45;3.78;;;;;;;29.84;25.67;101411.56;6209864;23;20000;-80
2023/06/17 10:53:29;;;;;;;7.68;3.58;;;;;;;30.10;26.90;101409.63;6210918;23;20392;-80
2023/06/17 10:55:58;;;;;;;4.55;3.20;;;;;;;30.32;25.87;101409.94;6209845;23;20000;-81
2023/06/17 10:58:31;;;;;;;7.43;3.60;;;;;;;29.95;26.29;101402.66;6211530;23;20004;-81
2023/06/17 11:00:58;;;;;;;6.18;3.30;;;;;;;30.03;26.60;101404.28;6184154;23;20066;-80
2023/06/17 11:03:24;;;;;;;6.82;3.75;;;;;;;29.99;27.20;101402.19;6211564;23;20005;-81
2023/06/17 11:05:50;;;;;;;9.48;3.95;;;;;;;29.92;26.39;101397.69;6212033;23;20004;-80
2023/06/17 11:08:16;;;;;;;4.85;3.10;;;;;;;29.83;25.60;101395.50;6211002;23;20007;-80
2023/06/17 11:10:41;;;;;;;4.38;3.30;;;;;;;29.91;26.97;101387.88;6185338;23;20008;-81
2023/06/17 11:13:12;;;;;;;6.53;3.50;;;;;;;30.04;27.15;101396.97;6211990;23;19996;-81
2023/06/17 11:15:38;;;;;;;6.05;3.50;;;;;;;30.22;25.99;101383.34;6213896;23;20000;-80
2023/06/17 11:18:04;;;;;;;4.30;3.65;;;;;;;30.08;25.90;101390.03;6210756;23;20007;-82
2023/06/17 11:20:35;;;;;;;5.07;3.80;;;;;;;29.60;26.08;101388.88;6184773;23;20450;-82
2023/06/17 11:23:04;;;;;;;6.82;3.42;;;;;;;29.66;26.43;101380.91;6160270;23;20013;-82
2023/06/17 11:25:31;;;;;;;4.88;3.60;;;;;;;29.60;25.36;101371.75;6212802;23;20015;-82
2023/06/17 11:27:56;;;;;;;9.10;3.70;;;;;;;29.86;26.04;101371.47;6185652;23;20028;-82
2023/06/17 11:30:26;;;;;;;6.63;3.72;;;;;;;30.19;26.83;101364.78;6211622;23;20141;-82
2023/06/17 11:32:52;;;;;;;5.53;3.50;;;;;;;30.45;26.27;101363.59;6185293;23;20008;-82